sensor_id;sensor_type;location;lat;lon;timestamp;pressure;altitude;pressure_sealevel;temperature;humidity
42067;BME280;27734;47.028;28.820;2022-09-28T00:01:53;98924.17;;;15.51;81.68
42067;BME280;27734;47.028;28.820;2022-09-28T00:04:25;98914.47;;;15.50;82.75
42067;BME280;27734;47.028;28.820;2022-09-28T00:06:56;98915.34;;;15.50;82.74
42067;BME280;27734;47.028;28.820;2022-09-28T00:09:28;98912.70;;;15.49;82.61
42067;BME280;27734;47.028;28.820;2022-09-28T00:11:59;98915.38;;;15.45;81.88
42067;BME280;27734;47.028;28.820;2022-09-28T00:14:30;98912.77;;;15.42;81.98
42067;BME280;27734;47.028;28.820;2022-09-28T00:17:02;98912.80;;;15.39;82.33
42067;BME280;27734;47.028;28.820;2022-09-28T00:19:33;98911.09;;;15.35;82.06
42067;BME280;27734;47.028;28.820;2022-09-28T00:22:04;98904.95;;;15.30;82.06
42067;BME280;27734;47.028;28.820;2022-09-28T00:24:35;98897.11;;;15.24;82.23
42067;BME280;27734;47.028;28.820;2022-09-28T00:27:07;98906.73;;;15.28;82.58
42067;BME280;27734;47.028;28.820;2022-09-28T00:29:38;98914.66;;;15.30;82.19
42067;BME280;27734;47.028;28.820;2022-09-28T00:32:12;98925.20;;;15.31;82.21
42067;BME280;27734;47.028;28.820;2022-09-28T00:34:45;98926.98;;;15.31;82.38
42067;BME280;27734;47.028;28.820;2022-09-28T00:37:20;98927.85;;;15.31;82.84
42067;BME280;27734;47.028;28.820;2022-09-28T00:39:52;98926.08;;;15.32;82.95
42067;BME280;27734;47.028;28.820;2022-09-28T00:42:26;98931.34;;;15.33;83.10
42067;BME280;27734;47.028;28.820;2022-09-28T00:44:58;98928.68;;;15.36;82.83
42067;BME280;27734;47.028;28.820;2022-09-28T00:47:42;98923.38;;;15.38;83.44
42067;BME280;27734;47.028;28.820;2022-09-28T00:50:23;98914.59;;;15.36;83.06
42067;BME280;27734;47.028;28.820;2022-09-28T00:53:01;98913.72;;;15.37;83.45
42067;BME280;27734;47.028;28.820;2022-09-28T00:55:38;98911.05;;;15.40;83.19
42067;BME280;27734;47.028;28.820;2022-09-28T00:58:13;98917.20;;;15.40;83.09
42067;BME280;27734;47.028;28.820;2022-09-28T01:00:47;98917.19;;;15.42;82.63
42067;BME280;27734;47.028;28.820;2022-09-28T01:03:19;98918.05;;;15.42;83.21
42067;BME280;27734;47.028;28.820;2022-09-28T01:05:51;98906.62;;;15.40;83.54
42067;BME280;27734;47.028;28.820;2022-09-28T01:08:25;98903.17;;;15.34;83.29
42067;BME280;27734;47.028;28.820;2022-09-28T01:10:58;98906.72;;;15.30;83.61
42067;BME280;27734;47.028;28.820;2022-09-28T01:13:31;98914.69;;;15.25;83.14
42067;BME280;27734;47.028;28.820;2022-09-28T01:16:08;98923.53;;;15.24;83.64
42067;BME280;27734;47.028;28.820;2022-09-28T01:18:50;98919.97;;;15.25;83.21
42067;BME280;27734;47.028;28.820;2022-09-28T01:21:24;98912.03;;;15.26;84.01
42067;BME280;27734;47.028;28.820;2022-09-28T01:24:16;98906.73;;;15.28;83.68
42067;BME280;27734;47.028;28.820;2022-09-28T01:27:13;98905.86;;;15.29;83.77
42067;BME280;27734;47.028;28.820;2022-09-28T01:29:53;98904.13;;;15.23;83.19
42067;BME280;27734;47.028;28.820;2022-09-28T01:32:33;98899.80;;;15.18;84.06
42067;BME280;27734;47.028;28.820;2022-09-28T01:35:09;98897.16;;;15.18;83.08
42067;BME280;27734;47.028;28.820;2022-09-28T01:37:48;98895.38;;;15.18;83.38
42067;BME280;27734;47.028;28.820;2022-09-28T01:40:23;98890.07;;;15.21;83.81
42067;BME280;27734;47.028;28.820;2022-09-28T01:43:01;98894.46;;;15.24;84.10
42067;BME280;27734;47.028;28.820;2022-09-28T01:45:37;98890.05;;;15.24;83.87
42067;BME280;27734;47.028;28.820;2022-09-28T01:48:16;98886.52;;;15.25;83.36
42067;BME280;27734;47.028;28.820;2022-09-28T01:51:07;98889.16;;;15.27;84.21
42067;BME280;27734;47.028;28.820;2022-09-28T01:53:47;98882.95;;;15.28;83.32
42067;BME280;27734;47.028;28.820;2022-09-28T01:56:25;98888.23;;;15.30;83.37
42067;BME280;27734;47.028;28.820;2022-09-28T01:59:02;98897.00;;;15.32;84.34
42067;BME280;27734;47.028;28.820;2022-09-28T02:01:40;98904.92;;;15.33;83.48
42067;BME280;27734;47.028;28.820;2022-09-28T02:04:15;98907.56;;;15.33;84.54
42067;BME280;27734;47.028;28.820;2022-09-28T02:06:54;98899.63;;;15.33;83.84
42067;BME280;27734;47.028;28.820;2022-09-28T02:09:30;98887.33;;;15.32;83.53
42067;BME280;27734;47.028;28.820;2022-09-28T02:12:07;98888.19;;;15.34;83.98
42067;BME280;27734;47.028;28.820;2022-09-28T02:14:42;98894.34;;;15.33;84.56
42067;BME280;27734;47.028;28.820;2022-09-28T02:17:15;98904.89;;;15.36;83.91
42067;BME280;27734;47.028;28.820;2022-09-28T02:19:50;98901.37;;;15.37;83.72
42067;BME280;27734;47.028;28.820;2022-09-28T02:22:27;98911.06;;;15.38;84.27
42067;BME280;27734;47.028;28.820;2022-09-28T02:25:02;98908.45;;;15.35;84.20
42067;BME280;27734;47.028;28.820;2022-09-28T02:27:40;98899.59;;;15.38;84.82
42067;BME280;27734;47.028;28.820;2022-09-28T02:30:14;98894.32;;;15.36;84.29
42067;BME280;27734;47.028;28.820;2022-09-28T02:32:48;98903.16;;;15.35;84.28
42067;BME280;27734;47.028;28.820;2022-09-28T02:35:20;98897.86;;;15.37;83.93
42067;BME280;27734;47.028;28.820;2022-09-28T02:37:52;98899.61;;;15.36;83.92
42067;BME280;27734;47.028;28.820;2022-09-28T02:40:26;98890.83;;;15.34;84.49
42067;BME280;27734;47.028;28.820;2022-09-28T02:43:03;98897.03;;;15.28;84.14
42067;BME280;27734;47.028;28.820;2022-09-28T02:45:48;98899.72;;;15.27;84.86
42067;BME280;27734;47.028;28.820;2022-09-28T02:48:31;98896.17;;;15.28;84.32
42067;BME280;27734;47.028;28.820;2022-09-28T02:51:14;98903.24;;;15.26;84.06
42067;BME280;27734;47.028;28.820;2022-09-28T02:54:13;98903.24;;;15.26;84.15
42067;BME280;27734;47.028;28.820;2022-09-28T02:56:54;98904.09;;;15.28;84.12
42067;BME280;27734;47.028;28.820;2022-09-28T02:59:39;98904.08;;;15.30;84.82
42067;BME280;27734;47.028;28.820;2022-09-28T03:02:24;98898.78;;;15.31;85.14
42067;BME280;27734;47.028;28.820;2022-09-28T03:05:17;98904.92;;;15.33;84.55
42067;BME280;27734;47.028;28.820;2022-09-28T03:07:55;98911.09;;;15.35;85.12
42067;BME280;27734;47.028;28.820;2022-09-28T03:10:34;98911.95;;;15.36;84.62
42067;BME280;27734;47.028;28.820;2022-09-28T03:13:08;98907.53;;;15.36;84.61
42067;BME280;27734;47.028;28.820;2022-09-28T03:15:40;98905.79;;;15.37;84.57
42067;BME280;27734;47.028;28.820;2022-09-28T03:18:11;98899.59;;;15.38;84.89
42067;BME280;27734;47.028;28.820;2022-09-28T03:20:44;98897.84;;;15.38;84.91
42067;BME280;27734;47.028;28.820;2022-09-28T03:23:15;98887.28;;;15.38;85.33
42067;BME280;27734;47.028;28.820;2022-09-28T03:25:46;98879.34;;;15.38;85.36
42067;BME280;27734;47.028;28.820;2022-09-28T03:28:17;98880.23;;;15.37;84.40
42067;BME280;27734;47.028;28.820;2022-09-28T03:30:51;98887.33;;;15.32;85.22
42067;BME280;27734;47.028;28.820;2022-09-28T03:33:23;98894.39;;;15.28;84.39
42067;BME280;27734;47.028;28.820;2022-09-28T03:35:54;98894.45;;;15.25;84.97
42067;BME280;27734;47.028;28.820;2022-09-28T03:38:26;98899.72;;;15.27;85.21
42067;BME280;27734;47.028;28.820;2022-09-28T03:40:59;98904.08;;;15.30;85.12
42067;BME280;27734;47.028;28.820;2022-09-28T03:43:33;98892.62;;;15.32;85.62
42067;BME280;27734;47.028;28.820;2022-09-28T03:46:05;98883.78;;;15.33;85.64
42067;BME280;27734;47.028;28.820;2022-09-28T03:48:41;98888.19;;;15.34;84.71
42067;BME280;27734;47.028;28.820;2022-09-28T03:51:13;98892.59;;;15.35;84.69
42067;BME280;27734;47.028;28.820;2022-09-28T03:53:44;98889.96;;;15.34;85.11
42067;BME280;27734;47.028;28.820;2022-09-28T03:56:16;98885.56;;;15.31;85.43
42067;BME280;27734;47.028;28.820;2022-09-28T03:58:47;98888.21;;;15.31;85.62
42067;BME280;27734;47.028;28.820;2022-09-28T04:01:18;98905.83;;;15.32;85.34
42067;BME280;27734;47.028;28.820;2022-09-28T04:03:53;98886.45;;;15.30;85.01
42067;BME280;27734;47.028;28.820;2022-09-28T04:06:26;98887.33;;;15.32;85.74
42067;BME280;27734;47.028;28.820;2022-09-28T04:08:57;98891.69;;;15.35;85.25
42067;BME280;27734;47.028;28.820;2022-09-28T04:11:28;98888.17;;;15.36;85.44
42067;BME280;27734;47.028;28.820;2022-09-28T04:14:01;98889.94;;;15.37;85.83
42067;BME280;27734;47.028;28.820;2022-09-28T04:16:33;98896.08;;;15.37;85.79
42067;BME280;27734;47.028;28.820;2022-09-28T04:19:17;98899.61;;;15.36;85.32
42067;BME280;27734;47.028;28.820;2022-09-28T04:22:07;98895.20;;;15.38;85.58
42067;BME280;27734;47.028;28.820;2022-09-28T04:24:38;98886.36;;;15.39;85.98
42067;BME280;27734;47.028;28.820;2022-09-28T04:27:10;98881.98;;;15.38;85.12
42067;BME280;27734;47.028;28.820;2022-09-28T04:29:59;98879.32;;;15.41;85.69
42067;BME280;27734;47.028;28.820;2022-09-28T04:32:31;98888.98;;;15.42;85.61
42067;BME280;27734;47.028;28.820;2022-09-28T04:35:03;98890.72;;;15.45;85.73
42067;BME280;27734;47.028;28.820;2022-09-28T04:37:35;98898.64;;;15.46;85.32
42067;BME280;27734;47.028;28.820;2022-09-28T04:40:09;98898.63;;;15.48;86.09
42067;BME280;27734;47.028;28.820;2022-09-28T04:42:40;98882.75;;;15.50;86.10
42067;BME280;27734;47.028;28.820;2022-09-28T04:45:12;98875.64;;;15.55;85.44
42067;BME280;27734;47.028;28.820;2022-09-28T04:47:47;98873.86;;;15.58;86.43
42067;BME280;27734;47.028;28.820;2022-09-28T04:50:30;98866.78;;;15.60;85.77
42067;BME280;27734;47.028;28.820;2022-09-28T04:53:09;98860.61;;;15.61;86.12
42067;BME280;27734;47.028;28.820;2022-09-28T04:55:42;98871.16;;;15.64;85.97
42067;BME280;27734;47.028;28.820;2022-09-28T04:58:14;98856.14;;;15.67;86.01
42067;BME280;27734;47.028;28.820;2022-09-28T05:00:45;98856.10;;;15.70;86.08
42067;BME280;27734;47.028;28.820;2022-09-28T05:03:52;98866.63;;;15.77;86.12
42067;BME280;27734;47.028;28.820;2022-09-28T05:06:34;98867.44;;;15.83;86.75
42067;BME280;27734;47.028;28.820;2022-09-28T05:09:09;98870.05;;;15.86;86.22
42067;BME280;27734;47.028;28.820;2022-09-28T05:11:40;98867.33;;;15.92;86.71
42067;BME280;27734;47.028;28.820;2022-09-28T05:14:17;98876.94;;;16.01;86.59
42067;BME280;27734;47.028;28.820;2022-09-28T05:16:48;98882.94;;;16.13;86.10
42067;BME280;27734;47.028;28.820;2022-09-28T05:19:29;98884.62;;;16.21;86.66
42067;BME280;27734;47.028;28.820;2022-09-28T05:22:05;98888.12;;;16.23;86.60
42067;BME280;27734;47.028;28.820;2022-09-28T05:24:44;98893.45;;;16.20;85.75
42067;BME280;27734;47.028;28.820;2022-09-28T05:27:20;98887.38;;;16.13;85.94
42067;BME280;27734;47.028;28.820;2022-09-28T05:30:01;98884.74;;;16.11;85.52
42067;BME280;27734;47.028;28.820;2022-09-28T05:32:37;98884.70;;;16.14;86.39
42067;BME280;27734;47.028;28.820;2022-09-28T05:35:43;98886.30;;;16.26;86.68
42067;BME280;27734;47.028;28.820;2022-09-28T05:38:14;98892.35;;;16.34;86.65
42067;BME280;27734;47.028;28.820;2022-09-28T05:40:51;98895.80;;;16.43;86.26
42067;BME280;27734;47.028;28.820;2022-09-28T05:43:23;98902.72;;;16.51;85.98
42067;BME280;27734;47.028;28.820;2022-09-28T05:45:59;98899.08;;;16.60;86.09
42067;BME280;27734;47.028;28.820;2022-09-28T05:48:37;98904.28;;;16.66;86.62
42067;BME280;27734;47.028;28.820;2022-09-28T05:51:08;98901.55;;;16.73;86.15
42067;BME280;27734;47.028;28.820;2022-09-28T05:53:40;98900.68;;;16.72;86.59
42067;BME280;27734;47.028;28.820;2022-09-28T05:56:12;98905.95;;;16.74;86.27
42067;BME280;27734;47.028;28.820;2022-09-28T05:58:50;98909.42;;;16.77;85.89
42067;BME280;27734;47.028;28.820;2022-09-28T06:01:26;98904.97;;;16.79;86.61
42067;BME280;27734;47.028;28.820;2022-09-28T06:04:01;98907.57;;;16.82;86.44
42067;BME280;27734;47.028;28.820;2022-09-28T06:06:36;98903.14;;;16.84;86.05
42067;BME280;27734;47.028;28.820;2022-09-28T06:09:11;98905.75;;;16.87;86.41
42067;BME280;27734;47.028;28.820;2022-09-28T06:12:16;98904.88;;;16.87;86.34
42067;BME280;27734;47.028;28.820;2022-09-28T06:14:54;98910.17;;;16.85;86.45
42067;BME280;27734;47.028;28.820;2022-09-28T06:17:29;98913.70;;;16.87;86.04
42067;BME280;27734;47.028;28.820;2022-09-28T06:20:18;98916.32;;;16.89;86.19
42067;BME280;27734;47.028;28.820;2022-09-28T06:22:59;98910.11;;;16.92;86.36
42067;BME280;27734;47.028;28.820;2022-09-28T06:25:35;98902.19;;;16.90;86.21
42067;BME280;27734;47.028;28.820;2022-09-28T06:28:09;98908.26;;;16.97;86.06
42067;BME280;27734;47.028;28.820;2022-09-28T06:30:42;98909.08;;;17.02;85.83
42067;BME280;27734;47.028;28.820;2022-09-28T06:33:18;98895.83;;;17.02;86.14
42067;BME280;27734;47.028;28.820;2022-09-28T06:35:49;98907.97;;;17.15;86.32
42067;BME280;27734;47.028;28.820;2022-09-28T06:38:22;98913.16;;;17.21;85.91
42067;BME280;27734;47.028;28.820;2022-09-28T06:40:55;98918.34;;;17.29;85.84
42067;BME280;27734;47.028;28.820;2022-09-28T06:43:28;98919.95;;;17.39;86.35
42067;BME280;27734;47.028;28.820;2022-09-28T06:46:21;98924.11;;;17.53;85.86
42067;BME280;27734;47.028;28.820;2022-09-28T06:49:14;98927.33;;;17.72;85.67
42067;BME280;27734;47.028;28.820;2022-09-28T06:52:03;98929.67;;;17.90;85.90
42067;BME280;27734;47.028;28.820;2022-09-28T06:54:56;98931.10;;;18.07;85.64
42067;BME280;27734;47.028;28.820;2022-09-28T06:57:37;98916.75;;;18.17;85.27
42067;BME280;27734;47.028;28.820;2022-09-28T07:00:20;98927.31;;;18.20;85.36
42067;BME280;27734;47.028;28.820;2022-09-28T07:02:56;98924.63;;;18.22;85.47
42067;BME280;27734;47.028;28.820;2022-09-28T07:05:56;98922.83;;;18.22;84.53
42067;BME280;27734;47.028;28.820;2022-09-28T07:08:52;98915.67;;;18.26;85.21
42067;BME280;27734;47.028;28.820;2022-09-28T07:11:51;98922.67;;;18.30;85.28
42067;BME280;27734;47.028;28.820;2022-09-28T07:14:30;98917.36;;;18.30;84.91
42067;BME280;27734;47.028;28.820;2022-09-28T07:17:14;98920.11;;;18.25;84.05
42067;BME280;27734;47.028;28.820;2022-09-28T07:23:03;98914.67;;;18.31;84.04
42067;BME280;27734;47.028;28.820;2022-09-28T07:25:54;98916.38;;;18.36;84.17
42067;BME280;27734;47.028;28.820;2022-09-28T07:28:36;98912.78;;;18.37;83.88
42067;BME280;27734;47.028;28.820;2022-09-28T07:31:48;98910.09;;;18.38;83.93
42067;BME280;27734;47.028;28.820;2022-09-28T07:34:38;98901.17;;;18.42;84.23
42067;BME280;27734;47.028;28.820;2022-09-28T07:37:43;98903.73;;;18.47;83.58
42067;BME280;27734;47.028;28.820;2022-09-28T07:40:14;98910.77;;;18.48;83.96
42067;BME280;27734;47.028;28.820;2022-09-28T07:43:11;98904.48;;;18.52;84.15
42067;BME280;27734;47.028;28.820;2022-09-28T07:45:46;98903.45;;;18.59;84.02
42067;BME280;27734;47.028;28.820;2022-09-28T07:48:19;98912.05;;;18.71;84.00
42067;BME280;27734;47.028;28.820;2022-09-28T07:51:04;98908.21;;;18.84;83.81
42067;BME280;27734;47.028;28.820;2022-09-28T07:53:52;98912.34;;;18.97;83.06
42067;BME280;27734;47.028;28.820;2022-09-28T07:56:38;98921.35;;;18.92;82.98
42067;BME280;27734;47.028;28.820;2022-09-28T07:59:19;98925.84;;;18.88;82.91
42067;BME280;27734;47.028;28.820;2022-09-28T08:02:12;98935.68;;;18.84;82.63
42067;BME280;27734;47.028;28.820;2022-09-28T08:04:48;98936.55;;;18.83;83.12
42067;BME280;27734;47.028;28.820;2022-09-28T08:07:22;98946.34;;;18.81;83.10
42067;BME280;27734;47.028;28.820;2022-09-28T08:10:09;98956.31;;;18.72;82.45
42067;BME280;27734;47.028;28.820;2022-09-28T08:13:07;98963.63;;;18.60;82.48
42067;BME280;27734;47.028;28.820;2022-09-28T08:16:03;98963.88;;;18.48;81.77
42067;BME280;27734;47.028;28.820;2022-09-28T08:18:50;98979.14;;;18.38;81.85
42067;BME280;27734;47.028;28.820;2022-09-28T08:21:24;98988.09;;;18.34;82.42
42067;BME280;27734;47.028;28.820;2022-09-28T08:24:14;98987.32;;;18.27;82.22
42067;BME280;27734;47.028;28.820;2022-09-28T08:26:46;98994.45;;;18.25;82.14
42067;BME280;27734;47.028;28.820;2022-09-28T08:29:21;98987.32;;;18.27;82.63
42067;BME280;27734;47.028;28.820;2022-09-28T08:31:54;99003.16;;;18.32;82.74
42067;BME280;27734;47.028;28.820;2022-09-28T08:34:50;98998.78;;;18.31;82.44
42067;BME280;27734;47.028;28.820;2022-09-28T08:37:44;99002.14;;;18.39;82.65
42067;BME280;27734;47.028;28.820;2022-09-28T08:40:47;99015.33;;;18.44;82.79
42067;BME280;27734;47.028;28.820;2022-09-28T08:47:23;99017.77;;;18.55;82.87
42067;BME280;27734;47.028;28.820;2022-09-28T08:50:28;99007.89;;;18.61;82.48
42067;BME280;27734;47.028;28.820;2022-09-28T08:53:36;99014.89;;;18.65;82.08
42067;BME280;27734;47.028;28.820;2022-09-28T08:56:36;99008.63;;;18.68;82.54
42067;BME280;27734;47.028;28.820;2022-09-28T08:59:27;99008.55;;;18.71;82.22
42067;BME280;27734;47.028;28.820;2022-09-28T09:02:16;99006.83;;;18.70;82.03
42067;BME280;27734;47.028;28.820;2022-09-28T09:04:54;99005.03;;;18.71;82.32
42067;BME280;27734;47.028;28.820;2022-09-28T09:10:50;99004.23;;;18.67;81.95
42067;BME280;27734;47.028;28.820;2022-09-28T09:13:59;99002.19;;;18.80;81.96
42067;BME280;27734;47.028;28.820;2022-09-28T09:16:35;99001.87;;;18.95;82.35
42067;BME280;27734;47.028;28.820;2022-09-28T09:19:38;99004.23;;;19.09;81.54
42067;BME280;27734;47.028;28.820;2022-09-28T09:22:33;99002.15;;;19.22;81.43
42067;BME280;27734;47.028;28.820;2022-09-28T09:25:18;99000.21;;;19.29;81.51
42067;BME280;27734;47.028;28.820;2022-09-28T09:28:16;99002.31;;;19.52;81.54
42067;BME280;27734;47.028;28.820;2022-09-28T09:30:59;98999.94;;;19.77;81.44
42067;BME280;27734;47.028;28.820;2022-09-28T09:34:07;99007.77;;;19.83;81.35
42067;BME280;27734;47.028;28.820;2022-09-28T09:40:22;98995.77;;;20.01;79.99
42067;BME280;27734;47.028;28.820;2022-09-28T09:43:09;98999.83;;;20.15;80.21
42067;BME280;27734;47.028;28.820;2022-09-28T09:46:11;98998.84;;;20.19;80.18
42067;BME280;27734;47.028;28.820;2022-09-28T09:49:10;98988.10;;;20.22;79.92
42067;BME280;27734;47.028;28.820;2022-09-28T09:51:49;98993.00;;;20.37;79.57
42067;BME280;27734;47.028;28.820;2022-09-28T09:54:34;99003.22;;;20.53;79.26
42067;BME280;27734;47.028;28.820;2022-09-28T09:57:43;99004.68;;;20.63;79.09
42067;BME280;27734;47.028;28.820;2022-09-28T10:00:39;98998.34;;;20.69;79.63
42067;BME280;27734;47.028;28.820;2022-09-28T10:03:27;98999.45;;;20.91;79.60
42067;BME280;27734;47.028;28.820;2022-09-28T10:06:14;99008.77;;;21.06;78.19
42067;BME280;27734;47.028;28.820;2022-09-28T10:08:50;99006.14;;;21.05;77.58
42067;BME280;27734;47.028;28.820;2022-09-28T10:11:30;99014.28;;;21.00;77.65
42067;BME280;27734;47.028;28.820;2022-09-28T10:14:23;99010.89;;;20.95;77.59
42067;BME280;27734;47.028;28.820;2022-09-28T10:17:12;99009.04;;;20.97;77.08
42067;BME280;27734;47.028;28.820;2022-09-28T10:20:05;99008.13;;;20.98;77.31
42067;BME280;27734;47.028;28.820;2022-09-28T10:22:56;99005.52;;;20.96;76.90
42067;BME280;27734;47.028;28.820;2022-09-28T10:25:36;99017.98;;;20.96;77.50
42067;BME280;27734;47.028;28.820;2022-09-28T10:28:13;99008.37;;;20.90;77.13
42067;BME280;27734;47.028;28.820;2022-09-28T10:30:52;99007.59;;;20.87;77.07
42067;BME280;27734;47.028;28.820;2022-09-28T10:33:34;99013.02;;;20.83;76.51
42067;BME280;27734;47.028;28.820;2022-09-28T10:36:07;99012.17;;;20.81;76.66
42067;BME280;27734;47.028;28.820;2022-09-28T10:38:47;99017.09;;;20.95;76.39
42067;BME280;27734;47.028;28.820;2022-09-28T10:41:30;99009.34;;;21.16;76.34
42067;BME280;27734;47.028;28.820;2022-09-28T10:44:14;99007.08;;;21.32;75.74
42067;BME280;27734;47.028;28.820;2022-09-28T10:47:26;98998.68;;;21.44;75.68
42067;BME280;27734;47.028;28.820;2022-09-28T10:50:00;99004.61;;;21.54;74.67
42067;BME280;27734;47.028;28.820;2022-09-28T10:52:40;99014.09;;;21.63;74.97
42067;BME280;27734;47.028;28.820;2022-09-28T10:55:28;99016.05;;;21.58;75.06
42067;BME280;27734;47.028;28.820;2022-09-28T10:58:09;99016.81;;;21.61;74.16
42067;BME280;27734;47.028;28.820;2022-09-28T11:00:48;99007.45;;;21.48;74.14
42067;BME280;27734;47.028;28.820;2022-09-28T11:03:29;99010.31;;;21.42;74.26
42067;BME280;27734;47.028;28.820;2022-09-28T11:06:11;99017.55;;;21.38;73.41
42067;BME280;27734;47.028;28.820;2022-09-28T11:08:44;99012.47;;;21.30;72.54
42067;BME280;27734;47.028;28.820;2022-09-28T11:11:23;99015.18;;;21.29;73.06
42067;BME280;27734;47.028;28.820;2022-09-28T11:14:23;99019.63;;;21.28;73.51
42067;BME280;27734;47.028;28.820;2022-09-28T11:17:15;99020.52;;;21.29;73.24
42067;BME280;27734;47.028;28.820;2022-09-28T11:19:49;99019.58;;;21.30;73.22
42067;BME280;27734;47.028;28.820;2022-09-28T11:22:26;99013.89;;;21.41;73.05
42067;BME280;27734;47.028;28.820;2022-09-28T11:25:22;99016.36;;;21.47;72.91
42067;BME280;27734;47.028;28.820;2022-09-28T11:27:58;99016.99;;;21.57;72.66
42067;BME280;27734;47.028;28.820;2022-09-28T11:30:36;99020.32;;;21.63;71.74
42067;BME280;27734;47.028;28.820;2022-09-28T11:33:47;99020.63;;;21.54;71.44
42067;BME280;27734;47.028;28.820;2022-09-28T11:36:51;99025.66;;;21.63;69.20
42067;BME280;27734;47.028;28.820;2022-09-28T11:39:32;99020.88;;;21.73;68.03
42067;BME280;27734;47.028;28.820;2022-09-28T11:42:21;99019.70;;;21.82;68.00
42067;BME280;27734;47.028;28.820;2022-09-28T11:45:08;99027.56;;;21.86;67.75
42067;BME280;27734;47.028;28.820;2022-09-28T11:47:55;99020.36;;;21.88;67.12
42067;BME280;27734;47.028;28.820;2022-09-28T11:50:41;99018.29;;;21.97;67.09
42067;BME280;27734;47.028;28.820;2022-09-28T11:53:26;99019.83;;;22.04;67.45
42067;BME280;27734;47.028;28.820;2022-09-28T11:58:56;99023.20;;;22.09;64.92
42067;BME280;27734;47.028;28.820;2022-09-28T12:01:44;99023.09;;;22.12;65.19
42067;BME280;27734;47.028;28.820;2022-09-28T12:04:30;99025.17;;;22.04;65.70
42067;BME280;27734;47.028;28.820;2022-09-28T12:07:11;99024.58;;;21.96;64.77
42067;BME280;27734;47.028;28.820;2022-09-28T12:09:56;99028.00;;;21.99;64.08
42067;BME280;27734;47.028;28.820;2022-09-28T12:12:34;99024.42;;;22.00;63.54
42067;BME280;27734;47.028;28.820;2022-09-28T12:15:18;99021.86;;;21.97;62.41
42067;BME280;27734;47.028;28.820;2022-09-28T12:17:54;99025.28;;;22.01;62.77
42067;BME280;27734;47.028;28.820;2022-09-28T12:20:34;99023.42;;;22.03;62.33
42067;BME280;27734;47.028;28.820;2022-09-28T12:23:27;99025.13;;;22.05;62.26
42067;BME280;27734;47.028;28.820;2022-09-28T12:26:09;99035.54;;;22.13;62.36
42067;BME280;27734;47.028;28.820;2022-09-28T12:28:49;99033.78;;;22.12;61.57
42067;BME280;27734;47.028;28.820;2022-09-28T12:31:30;99027.53;;;22.13;61.01
42067;BME280;27734;47.028;28.820;2022-09-28T12:34:15;99024.86;;;22.13;60.72
42067;BME280;27734;47.028;28.820;2022-09-28T12:37:01;99032.98;;;22.10;61.05
42067;BME280;27734;47.028;28.820;2022-09-28T12:39:49;99029.66;;;22.03;61.15
42067;BME280;27734;47.028;28.820;2022-09-28T12:42:49;99036.28;;;21.92;61.13
42067;BME280;27734;47.028;28.820;2022-09-28T12:46:01;99044.66;;;21.81;60.88
42067;BME280;27734;47.028;28.820;2022-09-28T12:48:53;99044.09;;;21.71;60.54
42067;BME280;27734;47.028;28.820;2022-09-28T12:51:42;99044.95;;;21.71;60.07
42067;BME280;27734;47.028;28.820;2022-09-28T12:54:29;99051.05;;;21.75;60.56
42067;BME280;27734;47.028;28.820;2022-09-28T12:57:13;99049.13;;;21.80;60.02
42067;BME280;27734;47.028;28.820;2022-09-28T12:59:59;99049.94;;;21.82;58.93
42067;BME280;27734;47.028;28.820;2022-09-28T13:03:09;99059.06;;;21.75;58.93
42067;BME280;27734;47.028;28.820;2022-09-28T13:06:11;99062.87;;;21.68;58.76
42067;BME280;27734;47.028;28.820;2022-09-28T13:09:03;99068.36;;;21.63;59.58
42067;BME280;27734;47.028;28.820;2022-09-28T13:11:48;99071.89;;;21.64;58.93
42067;BME280;27734;47.028;28.820;2022-09-28T13:14:49;99074.72;;;21.59;58.79
42067;BME280;27734;47.028;28.820;2022-09-28T13:17:37;99085.58;;;21.53;58.65
42067;BME280;27734;47.028;28.820;2022-09-28T13:20:27;99084.72;;;21.52;58.45
42067;BME280;27734;47.028;28.820;2022-09-28T13:23:10;99091.72;;;21.57;58.19
42067;BME280;27734;47.028;28.820;2022-09-28T13:25:53;99090.58;;;21.64;58.43
42067;BME280;27734;47.028;28.820;2022-09-28T13:28:42;99090.53;;;21.65;57.63
42067;BME280;27734;47.028;28.820;2022-09-28T13:31:21;99101.06;;;21.70;58.23
42067;BME280;27734;47.028;28.820;2022-09-28T13:33:59;99102.72;;;21.74;57.65
42067;BME280;27734;47.028;28.820;2022-09-28T13:36:40;99103.44;;;21.79;57.82
42067;BME280;27734;47.028;28.820;2022-09-28T13:39:36;99106.97;;;21.80;57.46
42067;BME280;27734;47.028;28.820;2022-09-28T13:42:20;99106.11;;;21.79;56.81
42067;BME280;27734;47.028;28.820;2022-09-28T13:45:21;99108.73;;;21.81;57.48
42067;BME280;27734;47.028;28.820;2022-09-28T13:48:13;99108.63;;;21.84;56.61
42067;BME280;27734;47.028;28.820;2022-09-28T13:51:20;99113.87;;;21.87;56.90
42067;BME280;27734;47.028;28.820;2022-09-28T13:54:10;99115.42;;;21.94;56.60
42067;BME280;27734;47.028;28.820;2022-09-28T13:56:49;99123.13;;;22.03;56.30
42067;BME280;27734;47.028;28.820;2022-09-28T13:59:26;99116.64;;;22.11;56.47
42067;BME280;27734;47.028;28.820;2022-09-28T14:02:03;99114.73;;;22.14;55.86
42067;BME280;27734;47.028;28.820;2022-09-28T14:04:58;99127.33;;;22.11;55.81
42067;BME280;27734;47.028;28.820;2022-09-28T14:07:56;99126.72;;;22.02;56.52
42067;BME280;27734;47.028;28.820;2022-09-28T14:10:49;99127.88;;;21.94;55.60
42067;BME280;27734;47.028;28.820;2022-09-28T14:13:58;99124.64;;;21.84;55.37
42067;BME280;27734;47.028;28.820;2022-09-28T14:16:32;99126.66;;;21.77;56.27
42067;BME280;27734;47.028;28.820;2022-09-28T14:19:07;99127.71;;;21.71;56.06
42067;BME280;27734;47.028;28.820;2022-09-28T14:21:52;99130.52;;;21.67;55.01
42067;BME280;27734;47.028;28.820;2022-09-28T14:24:37;99136.96;;;21.60;55.77